Time;durP1;ratioP1;P1;durP2;ratioP2;P2;SDS_P1;SDS_P2;PMS_P1;PMS_P2;Temp;Humidity;BMP_temperature;BMP_pressure;BME280_temperature;BME280_humidity;BME280_pressure;Samples;Min_cycle;Max_cycle;Signal;HPM_P1;HPM_P2
2022/07/22 00:00:13;;;;;;;9.70;6.30;;;;;;;;;;524630;28;1249;-85
2022/07/22 00:00:29;;;;;;;10.07;6.20;;;;;;;;;;526902;28;1364;-84
2022/07/22 00:00:44;;;;;;;10.30;6.43;;;;;;;;;;530293;28;843;-84
2022/07/22 00:01:00;;;;;;;9.30;6.38;;;;;;;;;;527788;28;1342;-85
2022/07/22 00:01:15;;;;;;;9.47;6.30;;;;;;;;;;527920;28;1267;-84
2022/07/22 00:01:31;;;;;;;10.68;6.45;;;;;;;;;;527555;28;1198;-84
2022/07/22 00:01:46;;;;;;;10.23;6.73;;;;;;;;;;527486;28;1299;-84
2022/07/22 00:02:01;;;;;;;10.93;6.70;;;;;;;;;;527581;28;891;-85
2022/07/22 00:02:17;;;;;;;10.43;6.50;;;;;;;;;;525932;28;998;-85
2022/07/22 00:02:32;;;;;;;8.80;6.47;;;;;;;;;;527656;28;1021;-85
2022/07/22 00:02:47;;;;;;;10.23;6.57;;;;;;;;;;525487;28;1240;-84
2022/07/22 00:03:03;;;;;;;11.43;6.57;;;;;;;;;;526859;28;1204;-84
2022/07/22 00:03:19;;;;;;;11.82;6.80;;;;;;;;;;526264;28;800;-85
2022/07/22 00:03:34;;;;;;;11.33;6.87;;;;;;;;;;528195;28;902;-85
2022/07/22 00:03:49;;;;;;;10.93;6.70;;;;;;;;;;526136;28;1230;-85
2022/07/22 00:04:05;;;;;;;11.83;6.73;;;;;;;;;;526200;28;831;-85
2022/07/22 00:04:20;;;;;;;10.60;6.50;;;;;;;;;;523976;28;1337;-85
2022/07/22 00:04:35;;;;;;;9.30;6.50;;;;;;;;;;525344;27;804;-85
2022/07/22 00:04:51;;;;;;;10.07;6.60;;;;;;;;;;528304;28;1073;-85
2022/07/22 00:05:07;;;;;;;10.67;6.60;;;;;;;;;;526346;28;1261;-85
2022/07/22 00:05:22;;;;;;;10.57;6.50;;;;;;;;;;525662;28;852;-85
2022/07/22 00:05:38;;;;;;;9.73;6.20;;;;;;;;;;524661;28;820;-85
2022/07/22 00:05:53;;;;;;;9.53;6.30;;;;;;;;;;526347;28;895;-85
2022/07/22 00:06:08;;;;;;;10.13;6.30;;;;;;;;;;526553;28;1297;-85
2022/07/22 00:06:24;;;;;;;10.00;6.30;;;;;;;;;;527950;28;1268;-85
2022/07/22 00:06:39;;;;;;;9.90;6.63;;;;;;;;;;528440;28;788;-86
2022/07/22 00:06:54;;;;;;;9.93;6.85;;;;;;;;;;528751;28;863;-85
2022/07/22 00:07:10;;;;;;;10.37;6.87;;;;;;;;;;528947;28;1056;-85
2022/07/22 00:07:25;;;;;;;9.80;6.73;;;;;;;;;;526386;28;1173;-85
2022/07/22 00:07:41;;;;;;;9.68;6.82;;;;;;;;;;526538;28;883;-85
2022/07/22 00:07:56;;;;;;;9.10;6.70;;;;;;;;;;528833;27;753;-85
2022/07/22 00:08:12;;;;;;;8.77;6.37;;;;;;;;;;530483;27;1257;-85
2022/07/22 00:08:27;;;;;;;10.68;6.55;;;;;;;;;;530459;27;1307;-85
2022/07/22 00:08:42;;;;;;;11.53;6.60;;;;;;;;;;529610;27;800;-85
2022/07/22 00:08:58;;;;;;;11.60;6.82;;;;;;;;;;526219;28;1339;-85
2022/07/22 00:09:13;;;;;;;10.50;7.00;;;;;;;;;;524593;28;1133;-85
2022/07/22 00:09:29;;;;;;;9.82;6.60;;;;;;;;;;526675;28;1293;-85
2022/07/22 00:09:44;;;;;;;10.37;6.47;;;;;;;;;;528490;28;1122;-85
2022/07/22 00:09:59;;;;;;;10.30;6.57;;;;;;;;;;528387;28;799;-85
2022/07/22 00:10:15;;;;;;;10.15;6.72;;;;;;;;;;526454;28;820;-85
2022/07/22 00:10:30;;;;;;;10.03;6.80;;;;;;;;;;526499;28;890;-85
2022/07/22 00:10:46;;;;;;;11.32;6.78;;;;;;;;;;524134;28;1193;-85
2022/07/22 00:11:01;;;;;;;12.17;6.60;;;;;;;;;;526474;28;1268;-85
2022/07/22 00:11:16;;;;;;;10.50;6.47;;;;;;;;;;526145;28;1446;-85
2022/07/22 00:11:32;;;;;;;8.60;6.13;;;;;;;;;;526876;28;888;-85
2022/07/22 00:11:47;;;;;;;8.60;6.17;;;;;;;;;;526583;28;1251;-85
2022/07/22 00:12:03;;;;;;;9.60;6.40;;;;;;;;;;527993;28;994;-85
2022/07/22 00:12:18;;;;;;;10.45;6.65;;;;;;;;;;526536;28;1179;-85
2022/07/22 00:12:35;;;;;;;9.27;6.47;;;;;;;;;;526623;28;793;-85
2022/07/22 00:12:50;;;;;;;8.90;6.20;;;;;;;;;;526957;28;968;-85
2022/07/22 00:13:05;;;;;;;9.00;6.30;;;;;;;;;;528846;27;1123;-85
2022/07/22 00:13:21;;;;;;;9.70;6.43;;;;;;;;;;528635;28;1499;-85
2022/07/22 00:13:36;;;;;;;10.80;6.67;;;;;;;;;;528923;27;915;-85
2022/07/22 00:13:51;;;;;;;9.73;6.70;;;;;;;;;;530811;27;866;-85
2022/07/22 00:14:07;;;;;;;9.57;6.50;;;;;;;;;;528949;28;1243;-85
2022/07/22 00:14:22;;;;;;;11.20;6.60;;;;;;;;;;530327;27;1225;-85
2022/07/22 00:14:38;;;;;;;10.73;6.67;;;;;;;;;;528468;28;1146;-85
2022/07/22 00:14:53;;;;;;;9.88;6.47;;;;;;;;;;528526;28;919;-85
2022/07/22 00:15:09;;;;;;;10.40;6.47;;;;;;;;;;528500;28;1228;-85
2022/07/22 00:15:25;;;;;;;9.05;6.38;;;;;;;;;;530459;27;899;-85
2022/07/22 00:15:41;;;;;;;8.52;6.32;;;;;;;;;;530711;27;840;-87
2022/07/22 00:15:56;;;;;;;8.98;6.28;;;;;;;;;;530880;27;875;-86
2022/07/22 00:16:12;;;;;;;8.75;6.18;;;;;;;;;;528743;27;1193;-86
2022/07/22 00:16:27;;;;;;;9.10;6.03;;;;;;;;;;528828;28;895;-86
2022/07/22 00:16:43;;;;;;;10.25;6.00;;;;;;;;;;528746;28;915;-86
2022/07/22 00:16:59;;;;;;;9.63;6.10;;;;;;;;;;529448;27;821;-86
2022/07/22 00:17:14;;;;;;;8.63;6.40;;;;;;;;;;530662;27;1683;-86
2022/07/22 00:17:29;;;;;;;9.30;6.33;;;;;;;;;;529449;27;1490;-86
2022/07/22 00:17:45;;;;;;;9.23;5.93;;;;;;;;;;528156;28;903;-86
2022/07/22 00:18:00;;;;;;;8.77;6.17;;;;;;;;;;527460;28;1314;-86
2022/07/22 00:18:16;;;;;;;9.48;6.28;;;;;;;;;;528548;28;828;-86
2022/07/22 00:18:31;;;;;;;10.17;6.60;;;;;;;;;;527106;28;1139;-86
2022/07/22 00:18:46;;;;;;;10.00;6.40;;;;;;;;;;528479;28;860;-86
2022/07/22 00:19:02;;;;;;;10.70;6.45;;;;;;;;;;528398;28;1163;-86
2022/07/22 00:19:17;;;;;;;10.33;6.47;;;;;;;;;;528617;28;1909;-86
2022/07/22 00:19:33;;;;;;;9.50;6.17;;;;;;;;;;530573;27;859;-86
2022/07/22 00:19:48;;;;;;;10.32;6.43;;;;;;;;;;528481;27;1205;-86
2022/07/22 00:20:06;;;;;;;10.00;6.60;;;;;;;;;;530522;27;1355;-86
2022/07/22 00:20:21;;;;;;;10.18;6.70;;;;;;;;;;526416;28;879;-86
2022/07/22 00:20:37;;;;;;;9.73;6.60;;;;;;;;;;526545;28;1001;-86
2022/07/22 00:20:52;;;;;;;8.68;6.35;;;;;;;;;;524292;28;1310;-86
2022/07/22 00:21:08;;;;;;;9.40;6.40;;;;;;;;;;525814;28;1338;-86
2022/07/22 00:21:23;;;;;;;10.75;6.38;;;;;;;;;;526269;28;1196;-86
2022/07/22 00:21:39;;;;;;;9.77;6.33;;;;;;;;;;526904;28;863;-86
2022/07/22 00:21:54;;;;;;;9.45;6.53;;;;;;;;;;524669;28;1273;-86
2022/07/22 00:22:09;;;;;;;10.57;6.73;;;;;;;;;;524551;28;887;-86
2022/07/22 00:22:25;;;;;;;10.00;6.63;;;;;;;;;;524607;28;923;-86
2022/07/22 00:22:40;;;;;;;9.90;6.57;;;;;;;;;;522486;28;1256;-86
2022/07/22 00:22:57;;;;;;;9.43;6.63;;;;;;;;;;523206;28;1412;-86
2022/07/22 00:23:12;;;;;;;9.20;6.43;;;;;;;;;;527056;28;792;-86
2022/07/22 00:23:28;;;;;;;9.00;6.30;;;;;;;;;;527789;28;783;-86
2022/07/22 00:23:43;;;;;;;8.65;6.45;;;;;;;;;;526889;28;991;-86
2022/07/22 00:23:59;;;;;;;10.83;6.50;;;;;;;;;;526491;28;1158;-86
2022/07/22 00:24:14;;;;;;;10.40;6.20;;;;;;;;;;526683;28;1242;-86
2022/07/22 00:24:30;;;;;;;10.10;6.40;;;;;;;;;;529162;28;811;-86
2022/07/22 00:24:45;;;;;;;10.88;6.85;;;;;;;;;;530863;27;950;-86
2022/07/22 00:25:01;;;;;;;9.40;6.73;;;;;;;;;;529608;27;879;-86
2022/07/22 00:25:16;;;;;;;8.90;6.50;;;;;;;;;;526587;28;1221;-86
2022/07/22 00:25:32;;;;;;;9.43;6.78;;;;;;;;;;526510;28;891;-86
2022/07/22 00:25:47;;;;;;;10.40;6.93;;;;;;;;;;526747;28;804;-86
2022/07/22 00:26:03;;;;;;;10.63;6.60;;;;;;;;;;528995;27;809;-86
2022/07/22 00:26:18;;;;;;;9.23;6.35;;;;;;;;;;528458;28;1298;-86
2022/07/22 00:26:34;;;;;;;8.83;6.63;;;;;;;;;;528599;28;886;-86
2022/07/22 00:26:49;;;;;;;8.73;6.85;;;;;;;;;;528053;28;1251;-86
2022/07/22 00:27:04;;;;;;;8.63;6.90;;;;;;;;;;526671;28;1282;-86
2022/07/22 00:27:20;;;;;;;9.40;6.90;;;;;;;;;;528523;28;784;-86
2022/07/22 00:27:35;;;;;;;9.60;6.60;;;;;;;;;;528419;28;824;-86
2022/07/22 00:27:50;;;;;;;8.83;6.33;;;;;;;;;;526298;28;1330;-86
2022/07/22 00:28:06;;;;;;;9.03;6.60;;;;;;;;;;524280;28;1219;-86
2022/07/22 00:28:21;;;;;;;9.65;6.68;;;;;;;;;;525848;28;1285;-86
2022/07/22 00:28:37;;;;;;;10.97;7.00;;;;;;;;;;526580;28;796;-86
2022/07/22 00:28:52;;;;;;;10.50;7.15;;;;;;;;;;524323;28;1209;-86
2022/07/22 00:29:07;;;;;;;10.13;6.80;;;;;;;;;;522872;28;1334;-86
2022/07/22 00:29:23;;;;;;;10.37;6.87;;;;;;;;;;522364;28;1307;-86
2022/07/22 00:29:38;;;;;;;10.27;7.05;;;;;;;;;;522503;28;895;-86
2022/07/22 00:29:53;;;;;;;9.87;6.80;;;;;;;;;;524485;28;1050;-86
2022/07/22 00:30:09;;;;;;;10.47;6.73;;;;;;;;;;524695;28;1262;-86
2022/07/22 00:30:25;;;;;;;11.30;7.10;;;;;;;;;;526378;28;1230;-86
2022/07/22 00:30:40;;;;;;;10.05;6.90;;;;;;;;;;524381;28;1168;-86
2022/07/22 00:30:56;;;;;;;9.53;6.70;;;;;;;;;;526231;28;1281;-86
2022/07/22 00:31:12;;;;;;;8.98;6.72;;;;;;;;;;524508;28;1302;-86
2022/07/22 00:31:28;;;;;;;9.40;6.60;;;;;;;;;;526584;28;1181;-86
2022/07/22 00:31:43;;;;;;;10.13;6.50;;;;;;;;;;524306;28;1369;-86
2022/07/22 00:31:58;;;;;;;10.60;6.50;;;;;;;;;;524405;28;1383;-86
2022/07/22 00:32:14;;;;;;;10.33;6.90;;;;;;;;;;524418;28;1250;-86
2022/07/22 00:32:29;;;;;;;9.90;6.80;;;;;;;;;;526857;28;967;-86
2022/07/22 00:32:45;;;;;;;9.90;6.80;;;;;;;;;;528660;28;1238;-86
2022/07/22 00:33:00;;;;;;;10.23;6.77;;;;;;;;;;529017;27;844;-86
2022/07/22 00:33:16;;;;;;;9.52;6.50;;;;;;;;;;528583;27;1176;-86
2022/07/22 00:33:31;;;;;;;9.57;6.50;;;;;;;;;;530810;27;886;-86
2022/07/22 00:33:46;;;;;;;9.88;6.55;;;;;;;;;;531034;27;854;-86
2022/07/22 00:34:03;;;;;;;9.43;6.50;;;;;;;;;;532510;27;1044;-86
2022/07/22 00:34:18;;;;;;;11.75;6.50;;;;;;;;;;532818;27;1001;-86
2022/07/22 00:34:33;;;;;;;12.65;6.68;;;;;;;;;;530558;27;1169;-86
2022/07/22 00:34:49;;;;;;;10.43;6.60;;;;;;;;;;530571;27;1073;-86
2022/07/22 00:35:05;;;;;;;9.15;6.78;;;;;;;;;;526779;28;785;-86
2022/07/22 00:35:21;;;;;;;9.07;6.63;;;;;;;;;;528447;28;1364;-86
2022/07/22 00:35:36;;;;;;;9.20;6.40;;;;;;;;;;526402;28;1362;-86
2022/07/22 00:35:51;;;;;;;10.17;6.70;;;;;;;;;;528164;28;918;-86
2022/07/22 00:36:08;;;;;;;10.53;6.90;;;;;;;;;;528546;28;820;-86
2022/07/22 00:36:23;;;;;;;9.88;6.72;;;;;;;;;;529040;27;1335;-86
2022/07/22 00:36:38;;;;;;;9.68;6.30;;;;;;;;;;530383;27;958;-86
2022/07/22 00:36:54;;;;;;;8.90;6.20;;;;;;;;;;530648;27;824;-86
2022/07/22 00:37:09;;;;;;;10.20;6.50;;;;;;;;;;531153;27;940;-86
2022/07/22 00:37:24;;;;;;;9.77;6.37;;;;;;;;;;529479;27;1280;-86
2022/07/22 00:37:40;;;;;;;8.47;6.30;;;;;;;;;;530537;27;902;-86
2022/07/22 00:37:55;;;;;;;9.43;6.30;;;;;;;;;;528433;28;1145;-86
2022/07/22 00:38:11;;;;;;;9.27;6.43;;;;;;;;;;526831;28;1313;-86
2022/07/22 00:38:26;;;;;;;8.83;6.70;;;;;;;;;;528448;28;1014;-86
2022/07/22 00:38:41;;;;;;;9.90;6.77;;;;;;;;;;528584;28;934;-86
2022/07/22 00:38:57;;;;;;;10.80;6.90;;;;;;;;;;528221;28;756;-86
2022/07/22 00:39:15;;;;;;;10.30;6.57;;;;;;;;;;528826;27;852;-86
2022/07/22 00:39:30;;;;;;;9.82;6.30;;;;;;;;;;524418;28;1953;-86
2022/07/22 00:39:47;;;;;;;11.05;6.45;;;;;;;;;;525509;28;836;-86
2022/07/22 00:40:04;;;;;;;10.55;6.50;;;;;;;;;;529185;27;1170;-86
2022/07/22 00:40:19;;;;;;;8.68;6.25;;;;;;;;;;528368;28;1321;-86
2022/07/22 00:40:35;;;;;;;9.55;6.20;;;;;;;;;;526400;28;1468;-85
2022/07/22 00:40:50;;;;;;;9.83;6.30;;;;;;;;;;526270;28;1197;-86
2022/07/22 00:41:06;;;;;;;8.82;6.20;;;;;;;;;;526264;28;1327;-86
2022/07/22 00:41:21;;;;;;;8.43;6.00;;;;;;;;;;527013;28;863;-86
2022/07/22 00:41:37;;;;;;;8.50;5.95;;;;;;;;;;526378;28;1238;-86
2022/07/22 00:41:52;;;;;;;9.02;6.15;;;;;;;;;;526278;28;1323;-86
2022/07/22 00:42:08;;;;;;;9.20;6.00;;;;;;;;;;524540;28;1269;-86
2022/07/22 00:42:23;;;;;;;8.00;5.70;;;;;;;;;;526421;28;804;-86
2022/07/22 00:42:38;;;;;;;8.63;5.88;;;;;;;;;;526832;28;1191;-86
2022/07/22 00:42:54;;;;;;;9.50;6.20;;;;;;;;;;528651;28;816;-86
2022/07/22 00:43:09;;;;;;;8.53;6.30;;;;;;;;;;528597;28;820;-86
2022/07/22 00:43:25;;;;;;;9.15;6.65;;;;;;;;;;528648;28;978;-86
2022/07/22 00:44:03;;;;;;;9.97;6.80;;;;;;;;;;526393;28;1162;-86
2022/07/22 00:44:19;;;;;;;10.95;6.68;;;;;;;;;;528679;28;839;-86
2022/07/22 00:44:34;;;;;;;11.90;6.67;;;;;;;;;;529978;27;904;-86
2022/07/22 00:44:49;;;;;;;10.30;6.50;;;;;;;;;;528946;27;1355;-86
2022/07/22 00:45:06;;;;;;;9.17;5.93;;;;;;;;;;528718;28;792;-86
2022/07/22 00:45:22;;;;;;;9.25;5.72;;;;;;;;;;528613;28;1038;-86
2022/07/22 00:45:37;;;;;;;8.10;5.70;;;;;;;;;;528547;28;800;-86
2022/07/22 00:45:53;;;;;;;10.40;6.18;;;;;;;;;;526578;28;1362;-86
2022/07/22 00:46:08;;;;;;;10.90;6.27;;;;;;;;;;526587;28;855;-86
2022/07/22 00:46:26;;;;;;;8.90;5.90;;;;;;;;;;527689;28;871;-86
2022/07/22 00:46:41;;;;;;;8.20;5.80;;;;;;;;;;529530;27;848;-86
2022/07/22 00:46:56;;;;;;;10.55;6.05;;;;;;;;;;530818;27;843;-86
2022/07/22 00:47:12;;;;;;;11.43;6.17;;;;;;;;;;529603;27;1002;-86
2022/07/22 00:47:27;;;;;;;9.75;5.85;;;;;;;;;;528871;27;1206;-86
2022/07/22 00:47:43;;;;;;;9.03;5.77;;;;;;;;;;530888;27;1072;-86
2022/07/22 00:47:58;;;;;;;8.27;5.60;;;;;;;;;;530568;27;1327;-86
2022/07/22 00:48:13;;;;;;;7.28;5.50;;;;;;;;;;530495;27;1158;-86
2022/07/22 00:48:29;;;;;;;7.90;5.60;;;;;;;;;;528397;28;1249;-85
2022/07/22 00:48:44;;;;;;;8.87;5.63;;;;;;;;;;528138;28;999;-86
2022/07/22 00:49:00;;;;;;;10.68;5.70;;;;;;;;;;526457;28;905;-86
2022/07/22 00:49:15;;;;;;;9.35;5.57;;;;;;;;;;526462;28;907;-86
2022/07/22 00:49:31;;;;;;;7.73;5.60;;;;;;;;;;526475;28;1221;-86
2022/07/22 00:49:46;;;;;;;8.57;5.50;;;;;;;;;;526653;28;1279;-86
2022/07/22 00:50:03;;;;;;;8.87;5.43;;;;;;;;;;528754;27;1154;-86
2022/07/22 00:50:20;;;;;;;8.07;5.60;;;;;;;;;;530676;27;1057;-86
2022/07/22 00:50:36;;;;;;;7.50;5.60;;;;;;;;;;530385;27;1239;-86
2022/07/22 00:50:52;;;;;;;8.30;5.55;;;;;;;;;;530772;27;910;-86
2022/07/22 00:51:08;;;;;;;8.77;5.80;;;;;;;;;;528501;28;1427;-86
2022/07/22 00:51:25;;;;;;;8.27;5.82;;;;;;;;;;526322;28;1407;-86
2022/07/22 00:51:40;;;;;;;8.93;6.00;;;;;;;;;;524151;28;1230;-86
2022/07/22 00:51:56;;;;;;;10.10;6.38;;;;;;;;;;524228;28;1292;-86
2022/07/22 00:52:12;;;;;;;12.02;6.47;;;;;;;;;;524416;28;800;-85
2022/07/22 00:52:28;;;;;;;11.73;6.03;;;;;;;;;;525022;28;1220;-86
2022/07/22 00:52:43;;;;;;;8.55;5.85;;;;;;;;;;526380;28;907;-87
2022/07/22 00:52:59;;;;;;;8.73;6.00;;;;;;;;;;525129;28;1270;-86
2022/07/22 00:53:15;;;;;;;10.77;5.87;;;;;;;;;;525252;28;1120;-86
2022/07/22 00:53:31;;;;;;;11.18;5.80;;;;;;;;;;528454;28;1372;-86
2022/07/22 00:53:46;;;;;;;9.80;5.97;;;;;;;;;;527596;28;1160;-85
2022/07/22 00:54:03;;;;;;;10.15;6.22;;;;;;;;;;526525;28;1285;-86
2022/07/22 00:54:19;;;;;;;9.20;6.20;;;;;;;;;;526807;28;872;-86
2022/07/22 00:54:36;;;;;;;8.27;5.83;;;;;;;;;;525158;28;1159;-86
2022/07/22 00:54:52;;;;;;;8.15;5.70;;;;;;;;;;521781;28;1211;-85
2022/07/22 00:55:08;;;;;;;8.90;6.15;;;;;;;;;;521631;28;1287;-85
2022/07/22 00:55:24;;;;;;;9.27;6.30;;;;;;;;;;521958;28;1402;-86
2022/07/22 00:55:39;;;;;;;9.60;6.40;;;;;;;;;;524545;28;1203;-86
2022/07/22 00:55:55;;;;;;;9.20;6.40;;;;;;;;;;524738;28;1277;-86
2022/07/22 00:56:10;;;;;;;9.43;6.33;;;;;;;;;;523739;28;1083;-85
2022/07/22 00:56:27;;;;;;;11.07;6.55;;;;;;;;;;526515;28;1298;-85
2022/07/22 00:56:43;;;;;;;9.65;6.35;;;;;;;;;;528920;28;1263;-85
2022/07/22 00:56:58;;;;;;;9.77;6.22;;;;;;;;;;524575;28;1391;-85
2022/07/22 00:57:14;;;;;;;10.23;6.05;;;;;;;;;;524508;28;801;-85
2022/07/22 00:57:29;;;;;;;9.10;5.80;;;;;;;;;;526425;28;1212;-85
2022/07/22 00:57:45;;;;;;;8.70;5.90;;;;;;;;;;522373;28;1191;-85
2022/07/22 00:58:02;;;;;;;8.83;5.97;;;;;;;;;;526466;28;1229;-86
2022/07/22 00:58:17;;;;;;;9.27;6.15;;;;;;;;;;526446;28;1239;-86
2022/07/22 00:58:35;;;;;;;9.23;6.32;;;;;;;;;;526200;28;1202;-86
2022/07/22 00:58:52;;;;;;;10.13;6.43;;;;;;;;;;522722;28;932;-86
2022/07/22 00:59:09;;;;;;;10.45;6.32;;;;;;;;;;522121;28;1258;-86
2022/07/22 00:59:26;;;;;;;11.05;6.28;;;;;;;;;;523098;28;1965;-86
2022/07/22 00:59:42;;;;;;;10.57;6.53;;;;;;;;;;524245;28;1333;-86
2022/07/22 00:59:57;;;;;;;8.30;6.40;;;;;;;;;;524550;28;914;-85
2022/07/22 01:00:17;;;;;;;8.10;6.25;;;;;;;;;;523444;28;1189;-85
2022/07/22 01:00:33;;;;;;;8.05;6.10;;;;;;;;;;526178;28;1298;-86
2022/07/22 01:00:49;;;;;;;8.80;6.10;;;;;;;;;;524543;28;1244;-86
2022/07/22 01:01:04;;;;;;;9.50;6.07;;;;;;;;;;524180;28;1194;-86
2022/07/22 01:01:19;;;;;;;9.07;6.20;;;;;;;;;;524504;28;1260;-86
2022/07/22 01:01:35;;;;;;;9.35;6.50;;;;;;;;;;524438;28;1401;-86
2022/07/22 01:01:51;;;;;;;9.40;6.53;;;;;;;;;;524449;28;1566;-86
2022/07/22 01:02:06;;;;;;;9.45;6.60;;;;;;;;;;526747;28;1497;-86
2022/07/22 01:02:22;;;;;;;8.67;6.50;;;;;;;;;;528622;28;954;-85
2022/07/22 01:02:37;;;;;;;9.02;6.50;;;;;;;;;;529649;27;1384;-86
2022/07/22 01:02:53;;;;;;;9.27;6.30;;;;;;;;;;529675;27;1472;-86
2022/07/22 01:03:08;;;;;;;9.50;6.23;;;;;;;;;;531289;27;1326;-86
2022/07/22 01:03:23;;;;;;;9.50;6.15;;;;;;;;;;533110;27;828;-86
2022/07/22 01:03:39;;;;;;;9.23;6.07;;;;;;;;;;530761;27;1192;-85
2022/07/22 01:03:55;;;;;;;9.53;6.10;;;;;;;;;;530836;27;894;-85
2022/07/22 01:04:10;;;;;;;9.55;6.13;;;;;;;;;;530969;27;1211;-85
2022/07/22 01:04:26;;;;;;;8.87;6.27;;;;;;;;;;529362;27;907;-86
2022/07/22 01:04:41;;;;;;;7.63;6.20;;;;;;;;;;526541;28;1175;-86
2022/07/22 01:04:57;;;;;;;8.43;6.20;;;;;;;;;;526467;28;1299;-86
2022/07/22 01:05:13;;;;;;;10.60;6.50;;;;;;;;;;526115;28;1198;-86
2022/07/22 01:05:28;;;;;;;11.68;6.80;;;;;;;;;;528685;28;804;-85
2022/07/22 01:05:43;;;;;;;10.10;6.80;;;;;;;;;;527516;28;1475;-86
2022/07/22 01:05:59;;;;;;;9.30;6.70;;;;;;;;;;526023;28;1424;-86
2022/07/22 01:06:14;;;;;;;9.23;6.70;;;;;;;;;;527164;28;1495;-86
2022/07/22 01:06:30;;;;;;;8.63;6.70;;;;;;;;;;524251;28;1137;-86
2022/07/22 01:06:46;;;;;;;9.80;6.90;;;;;;;;;;524289;28;907;-85
2022/07/22 01:07:01;;;;;;;10.13;7.10;;;;;;;;;;522629;28;1427;-86
2022/07/22 01:07:16;;;;;;;9.07;6.77;;;;;;;;;;524411;28;812;-86
2022/07/22 01:07:32;;;;;;;8.55;6.43;;;;;;;;;;524605;28;801;-86
2022/07/22 01:07:47;;;;;;;9.43;6.73;;;;;;;;;;526573;28;1184;-86
2022/07/22 01:08:05;;;;;;;9.82;6.85;;;;;;;;;;526406;28;1296;-86
2022/07/22 01:08:21;;;;;;;9.88;7.15;;;;;;;;;;527350;28;957;-86
2022/07/22 01:08:37;;;;;;;9.40;7.00;;;;;;;;;;528575;28;1069;-86
2022/07/22 01:08:54;;;;;;;9.75;7.13;;;;;;;;;;529427;28;840;-86
2022/07/22 01:09:11;;;;;;;9.53;7.30;;;;;;;;;;528674;28;1230;-86
2022/07/22 01:09:26;;;;;;;8.63;6.90;;;;;;;;;;526116;28;1147;-85
2022/07/22 01:09:43;;;;;;;9.20;7.00;;;;;;;;;;524204;28;1288;-86
2022/07/22 01:09:59;;;;;;;9.38;7.03;;;;;;;;;;523462;28;1362;-86
2022/07/22 01:10:14;;;;;;;9.17;6.43;;;;;;;;;;528127;28;943;-86
2022/07/22 01:10:29;;;;;;;10.13;6.70;;;;;;;;;;528624;28;1002;-86
2022/07/22 01:10:45;;;;;;;10.32;7.15;;;;;;;;;;528504;28;1058;-86
2022/07/22 01:11:15;;;;;;;10.27;7.10;;;;;;;;;;525611;28;1147;-85
2022/07/22 01:11:30;;;;;;;10.15;7.70;;;;;;;;;;526516;28;1136;-86
2022/07/22 01:11:46;;;;;;;10.27;7.50;;;;;;;;;;528328;28;800;-85
2022/07/22 01:12:02;;;;;;;9.23;7.27;;;;;;;;;;528460;28;1120;-85
2022/07/22 01:12:18;;;;;;;8.93;7.77;;;;;;;;;;528505;28;1071;-85
2022/07/22 01:12:33;;;;;;;9.40;7.95;;;;;;;;;;527228;27;1346;-85
2022/07/22 01:12:49;;;;;;;9.97;7.53;;;;;;;;;;528534;28;1308;-85
2022/07/22 01:13:04;;;;;;;9.60;7.50;;;;;;;;;;528476;28;1391;-85
2022/07/22 01:13:20;;;;;;;9.13;7.50;;;;;;;;;;526663;28;1218;-86
2022/07/22 01:13:36;;;;;;;9.93;7.60;;;;;;;;;;528650;28;796;-86
2022/07/22 01:13:52;;;;;;;10.18;7.90;;;;;;;;;;528760;28;923;-86
2022/07/22 01:14:08;;;;;;;9.73;7.63;;;;;;;;;;528136;28;1193;-86
2022/07/22 01:14:23;;;;;;;9.68;7.40;;;;;;;;;;529122;27;885;-85
2022/07/22 01:14:39;;;;;;;9.82;7.75;;;;;;;;;;531280;27;945;-85
2022/07/22 01:14:54;;;;;;;10.70;8.00;;;;;;;;;;532857;27;1236;-85
2022/07/22 01:15:09;;;;;;;11.17;8.30;;;;;;;;;;528601;28;1266;-85
2022/07/22 01:15:25;;;;;;;11.15;8.27;;;;;;;;;;528534;28;1013;-85
2022/07/22 01:15:40;;;;;;;11.13;8.23;;;;;;;;;;526339;28;1192;-85
2022/07/22 01:15:56;;;;;;;11.13;8.32;;;;;;;;;;527879;28;870;-86
2022/07/22 01:16:13;;;;;;;11.87;8.47;;;;;;;;;;526337;28;1162;-86
2022/07/22 01:16:28;;;;;;;11.45;8.30;;;;;;;;;;526459;28;898;-85
2022/07/22 01:16:44;;;;;;;10.67;7.83;;;;;;;;;;526311;28;1283;-85
2022/07/22 01:16:59;;;;;;;10.68;7.80;;;;;;;;;;526122;28;1329;-85
2022/07/22 01:17:15;;;;;;;10.33;7.90;;;;;;;;;;524033;28;1233;-85
2022/07/22 01:17:30;;;;;;;10.32;8.25;;;;;;;;;;521314;28;1370;-85
2022/07/22 01:17:45;;;;;;;10.10;8.47;;;;;;;;;;520043;28;1468;-85
2022/07/22 01:18:01;;;;;;;10.38;8.48;;;;;;;;;;520487;28;991;-85
2022/07/22 01:18:17;;;;;;;10.90;8.33;;;;;;;;;;522258;28;1196;-85
2022/07/22 01:18:32;;;;;;;10.57;8.30;;;;;;;;;;524307;28;1318;-86
2022/07/22 01:18:47;;;;;;;9.80;8.20;;;;;;;;;;524809;28;871;-85
2022/07/22 01:19:04;;;;;;;10.20;8.05;;;;;;;;;;526949;28;841;-85
2022/07/22 01:19:19;;;;;;;11.00;8.27;;;;;;;;;;528398;28;1977;-85
2022/07/22 01:19:37;;;;;;;11.07;8.63;;;;;;;;;;528487;28;1236;-85
2022/07/22 01:19:59;;;;;;;11.38;8.90;;;;;;;;;;527067;28;868;-85
2022/07/22 01:20:15;;;;;;;10.90;8.70;;;;;;;;;;525891;28;1122;-85
2022/07/22 01:20:31;;;;;;;10.70;8.43;;;;;;;;;;527549;28;1255;-85
2022/07/22 01:20:46;;;;;;;10.55;8.27;;;;;;;;;;528485;27;1384;-85
2022/07/22 01:21:03;;;;;;;9.93;8.30;;;;;;;;;;528346;28;1166;-85
2022/07/22 01:21:18;;;;;;;10.57;8.40;;;;;;;;;;528307;28;1346;-85
2022/07/22 01:21:34;;;;;;;10.70;8.40;;;;;;;;;;525797;28;1386;-85
2022/07/22 01:21:49;;;;;;;10.45;8.23;;;;;;;;;;525793;28;1274;-86
2022/07/22 01:22:05;;;;;;;10.27;8.00;;;;;;;;;;524023;28;1302;-85
2022/07/22 01:22:21;;;;;;;9.63;7.95;;;;;;;;;;524132;28;927;-86
2022/07/22 01:22:36;;;;;;;9.47;7.80;;;;;;;;;;522167;28;1139;-86
2022/07/22 01:22:52;;;;;;;10.23;8.20;;;;;;;;;;522161;28;1250;-85
2022/07/22 01:23:07;;;;;;;10.52;8.50;;;;;;;;;;520710;28;998;-85
2022/07/22 01:23:23;;;;;;;10.77;8.70;;;;;;;;;;524747;28;1046;-85
2022/07/22 01:23:39;;;;;;;11.40;8.70;;;;;;;;;;526826;28;799;-85
2022/07/22 01:23:54;;;;;;;11.45;8.25;;;;;;;;;;528423;28;803;-85
2022/07/22 01:24:09;;;;;;;11.47;8.30;;;;;;;;;;530368;27;811;-86
2022/07/22 01:24:25;;;;;;;10.60;8.60;;;;;;;;;;531094;27;1081;-86
2022/07/22 01:24:40;;;;;;;10.13;8.77;;;;;;;;;;532833;27;1501;-85
2022/07/22 01:24:56;;;;;;;10.77;8.77;;;;;;;;;;532247;27;1266;-85
2022/07/22 01:25:11;;;;;;;10.60;8.60;;;;;;;;;;532597;27;1589;-86
2022/07/22 01:25:27;;;;;;;10.40;8.50;;;;;;;;;;530969;27;925;-86
2022/07/22 01:25:42;;;;;;;10.07;8.67;;;;;;;;;;528603;28;1155;-85
2022/07/22 01:25:58;;;;;;;10.37;8.90;;;;;;;;;;526454;28;1334;-85
2022/07/22 01:26:15;;;;;;;10.45;8.93;;;;;;;;;;524197;28;1384;-85
2022/07/22 01:26:30;;;;;;;11.15;8.60;;;;;;;;;;524423;28;1378;-85
2022/07/22 01:26:46;;;;;;;12.47;8.70;;;;;;;;;;526407;28;772;-85
2022/07/22 01:27:01;;;;;;;11.40;8.85;;;;;;;;;;524265;28;1207;-85
2022/07/22 01:27:16;;;;;;;11.50;8.43;;;;;;;;;;524228;28;823;-85
2022/07/22 01:27:32;;;;;;;11.25;8.15;;;;;;;;;;523571;28;1426;-85
2022/07/22 01:27:47;;;;;;;10.77;8.23;;;;;;;;;;524753;28;875;-86
2022/07/22 01:28:03;;;;;;;11.57;8.73;;;;;;;;;;526295;28;1079;-85
2022/07/22 01:28:19;;;;;;;11.60;8.98;;;;;;;;;;526396;28;1474;-86
2022/07/22 01:28:35;;;;;;;10.80;8.80;;;;;;;;;;526274;28;1234;-86
2022/07/22 01:28:50;;;;;;;10.68;8.98;;;;;;;;;;524453;28;1249;-86
2022/07/22 01:29:07;;;;;;;10.82;8.43;;;;;;;;;;524212;28;1202;-86
2022/07/22 01:29:22;;;;;;;10.85;7.95;;;;;;;;;;522071;28;1396;-85
2022/07/22 01:29:38;;;;;;;10.77;8.50;;;;;;;;;;523861;28;1093;-85
2022/07/22 01:29:53;;;;;;;10.27;8.52;;;;;;;;;;523787;28;1311;-85
2022/07/22 01:30:09;;;;;;;9.97;8.10;;;;;;;;;;524185;28;788;-85
2022/07/22 01:30:24;;;;;;;9.25;7.90;;;;;;;;;;524742;28;1107;-85
2022/07/22 01:30:40;;;;;;;9.40;8.00;;;;;;;;;;529534;27;813;-85
2022/07/22 01:30:55;;;;;;;11.18;8.20;;;;;;;;;;528403;28;1182;-85
2022/07/22 01:31:10;;;;;;;11.37;8.37;;;;;;;;;;526404;28;1309;-85
2022/07/22 01:31:27;;;;;;;10.43;8.50;;;;;;;;;;524202;28;1156;-85
2022/07/22 01:31:43;;;;;;;11.05;8.45;;;;;;;;;;525116;28;851;-85
2022/07/22 01:31:58;;;;;;;10.65;8.15;;;;;;;;;;524395;28;1244;-85
2022/07/22 01:32:14;;;;;;;9.77;7.97;;;;;;;;;;525344;28;971;-85
2022/07/22 01:32:29;;;;;;;10.25;8.10;;;;;;;;;;526550;28;831;-85
2022/07/22 01:32:45;;;;;;;10.90;8.07;;;;;;;;;;527057;28;994;-85
2022/07/22 01:33:00;;;;;;;10.52;8.05;;;;;;;;;;526801;28;1137;-85
2022/07/22 01:33:19;;;;;;;10.07;8.20;;;;;;;;;;529124;28;1149;-86
2022/07/22 01:33:35;;;;;;;10.00;8.13;;;;;;;;;;530710;27;898;-85
2022/07/22 01:33:51;;;;;;;10.68;8.00;;;;;;;;;;528412;28;1358;-85
2022/07/22 01:34:06;;;;;;;10.82;7.85;;;;;;;;;;528524;28;1085;-86
2022/07/22 01:34:22;;;;;;;9.77;7.77;;;;;;;;;;528605;28;776;-86
2022/07/22 01:34:38;;;;;;;9.80;7.78;;;;;;;;;;526463;28;1194;-86
2022/07/22 01:34:53;;;;;;;10.40;7.87;;;;;;;;;;527336;28;851;-86
2022/07/22 01:35:08;;;;;;;9.48;7.70;;;;;;;;;;526206;28;1174;-86
2022/07/22 01:35:24;;;;;;;8.60;7.67;;;;;;;;;;526452;28;888;-86
2022/07/22 01:35:39;;;;;;;9.13;7.70;;;;;;;;;;528254;28;1185;-85
2022/07/22 01:35:54;;;;;;;9.27;7.63;;;;;;;;;;526032;28;1070;-85
2022/07/22 01:36:10;;;;;;;8.87;7.80;;;;;;;;;;524198;28;1158;-86
2022/07/22 01:36:25;;;;;;;9.70;7.55;;;;;;;;;;524362;28;1097;-85
2022/07/22 01:36:41;;;;;;;10.50;7.80;;;;;;;;;;524256;28;1313;-85
2022/07/22 01:36:56;;;;;;;10.43;8.32;;;;;;;;;;524136;28;1264;-85
2022/07/22 01:37:11;;;;;;;10.63;8.07;;;;;;;;;;525956;28;951;-85
2022/07/22 01:37:27;;;;;;;10.30;8.00;;;;;;;;;;526687;28;1292;-86